»·PEaware :: WAT306 KRNO-KBIL

WAT306 :: KRNO-KBIL

FLIGHT INFORMATION

Flight Status: Arrived
Operator:
Walker Air Transport
More flights by this operator :: More flights under this callsign
Pilot: Ethan S. (29221)
Aircraft: SOCATA TBM-900
(TBM9)
More flights by this aircraft type
Origin: KRNO Reno/Tahoe Intl
United States
Destination: KBIL Billings Logan Intl
United States
More flights between these airports :: More routes between these airports
Route: +RNO9 FMG LLC TNKUS DBS
File this flight plan on PilotEdge
Remarks:
Altitude:
(Current/Filed)
31,000ft
Speed:
(Current/Filed)
320kts
Departed: 08-Nov-20 01:54 PM
Arrived: 08-Nov-20 04:04 PM
Distance/Time
Traveled:
623nm/2:10
Distance/Time
To Go:
Arrived

Flight Plot

Page will automatically refresh every two minutes.

Flight plan parsing failed; only flown route is shown


Map Options




Map Legend


Flown Route
Filed Route
Departure Airport
Arrival Airport
Navaid (VOR, NDB)
Fix

Horizontal Profiles

Position Reports

Time Latitude Longitude Heading Altitude Ground
Speed
08-Nov-20 13:40 39.500206 -119.764252 180 4418ft 0kts
08-Nov-20 13:41 39.500206 -119.764252 180 4418ft 0kts
08-Nov-20 13:42 39.500206 -119.764252 180 4418ft 0kts
08-Nov-20 13:43 39.500206 -119.764252 180 4418ft 0kts
08-Nov-20 13:44 39.500206 -119.764252 180 4418ft 0kts
08-Nov-20 13:45 39.500206 -119.764252 180 4418ft 0kts
08-Nov-20 13:46 39.500206 -119.764252 180 4418ft 0kts
08-Nov-20 13:47 39.500851 -119.764981 270 4418ft 11kts
08-Nov-20 13:48 39.498424 -119.765736 179 4418ft 16kts
08-Nov-20 13:49 39.494878 -119.765208 179 4418ft 13kts
08-Nov-20 13:50 39.490576 -119.765217 179 4418ft 18kts
08-Nov-20 13:51 39.489255 -119.765710 265 4418ft 0kts
08-Nov-20 13:52 39.489961 -119.766808 359 4418ft 0kts
08-Nov-20 13:53 39.498408 -119.766753 359 4486ft 103kts
08-Nov-20 13:54 39.534616 -119.764095 3 6214ft 130kts
08-Nov-20 13:55 39.571141 -119.760564 3 8058ft 131kts
08-Nov-20 13:56 39.601480 -119.738025 53 10253ft 137kts
08-Nov-20 13:57 39.622062 -119.694974 55 12290ft 137kts
08-Nov-20 13:58 39.642960 -119.649619 54 14481ft 142kts
08-Nov-20 13:59 39.664231 -119.603171 53 16668ft 148kts
08-Nov-20 14:00 39.686246 -119.554943 52 19107ft 151kts
08-Nov-20 14:01 39.709006 -119.505046 52 21367ft 158kts
08-Nov-20 14:02 39.733084 -119.452130 51 23727ft 163kts
08-Nov-20 14:03 39.758351 -119.396538 50 25816ft 170kts
08-Nov-20 14:04 39.784299 -119.339353 50 27771ft 180kts
08-Nov-20 14:05 39.811182 -119.279937 49 30044ft 185kts
08-Nov-20 14:06 39.842317 -119.211282 51 30821ft 243kts
08-Nov-20 14:07 39.881624 -119.123932 52 30777ft 281kts
08-Nov-20 14:08 39.924388 -119.028707 52 30758ft 291kts
08-Nov-20 14:09 39.967461 -118.932599 54 30757ft 295kts
08-Nov-20 14:10 40.010434 -118.836368 55 30759ft 299kts
08-Nov-20 14:11 40.053854 -118.738734 56 30761ft 304kts
08-Nov-20 14:12 40.097574 -118.640184 56 30760ft 305kts
08-Nov-20 14:13 40.142079 -118.542466 54 30764ft 306kts
08-Nov-20 14:14 40.189202 -118.443736 54 30764ft 307kts
08-Nov-20 14:15 40.236603 -118.344112 54 30763ft 307kts
08-Nov-20 14:16 40.283772 -118.244652 54 30762ft 307kts
08-Nov-20 14:17 40.331070 -118.144602 54 30762ft 307kts
08-Nov-20 14:18 40.378640 -118.043652 54 30766ft 307kts
08-Nov-20 14:19 40.426272 -117.942242 54 30770ft 307kts
08-Nov-20 14:20 40.473886 -117.840536 54 30771ft 307kts
08-Nov-20 14:21 40.521558 -117.738370 54 30771ft 307kts
08-Nov-20 14:22 40.568260 -117.637954 54 30771ft 307kts
08-Nov-20 14:23 40.614889 -117.537364 54 30767ft 307kts
08-Nov-20 14:24 40.661691 -117.436072 54 30760ft 307kts
08-Nov-20 14:25 40.708102 -117.335292 55 30758ft 307kts
08-Nov-20 14:26 40.754024 -117.235252 55 30758ft 307kts
08-Nov-20 14:27 40.799828 -117.135142 55 30753ft 307kts
08-Nov-20 14:28 40.846130 -117.033640 55 30750ft 310kts
08-Nov-20 14:29 40.893116 -116.930314 57 30753ft 316kts
08-Nov-20 14:30 40.940937 -116.824669 57 30754ft 320kts
08-Nov-20 14:31 40.989510 -116.716994 57 30755ft 321kts
08-Nov-20 14:32 41.038711 -116.607650 56 30751ft 317kts
08-Nov-20 14:33 41.086718 -116.500573 57 30737ft 313kts
08-Nov-20 14:34 41.134246 -116.394134 57 30717ft 310kts
08-Nov-20 14:35 41.181146 -116.288725 58 30716ft 308kts
08-Nov-20 14:36 41.227684 -116.183779 58 30716ft 308kts
08-Nov-20 14:37 41.274042 -116.078890 58 30716ft 308kts
08-Nov-20 14:38 41.320299 -115.973864 58 30716ft 308kts
08-Nov-20 14:39 41.366484 -115.868633 58 30716ft 308kts
08-Nov-20 14:40 41.412989 -115.762298 58 30716ft 308kts
08-Nov-20 14:41 41.459301 -115.656032 58 30716ft 308kts
08-Nov-20 14:43 41.505795 -115.548964 58 30716ft 308kts
08-Nov-20 14:44 41.552096 -115.441961 58 30716ft 308kts
08-Nov-20 14:45 41.598005 -115.335477 59 30716ft 308kts
08-Nov-20 14:46 41.643593 -115.229376 59 30726ft 307kts
08-Nov-20 14:47 41.688823 -115.124017 61 30749ft 306kts
08-Nov-20 14:48 41.733586 -115.018864 62 30766ft 309kts
08-Nov-20 14:49 41.779273 -114.911292 62 30774ft 318kts
08-Nov-20 14:50 41.843803 -114.821719 39 30774ft 326kts
08-Nov-20 14:51 41.916947 -114.740777 40 30773ft 328kts
08-Nov-20 14:52 41.990185 -114.659271 40 30773ft 328kts
08-Nov-20 14:53 42.063100 -114.577866 40 30774ft 329kts
08-Nov-20 14:54 42.135858 -114.496398 40 30769ft 329kts
08-Nov-20 14:55 42.208353 -114.414962 40 30770ft 328kts
08-Nov-20 14:56 42.280847 -114.333282 40 30769ft 328kts
08-Nov-20 14:57 42.353464 -114.251204 40 30770ft 328kts
08-Nov-20 14:58 42.426509 -114.168381 40 30761ft 328kts
08-Nov-20 14:59 42.498974 -114.085963 40 30749ft 329kts
08-Nov-20 14:59 42.560149 -114.016184 40 30739ft 329kts
08-Nov-20 15:01 42.645996 -113.917946 40 30735ft 329kts
08-Nov-20 15:02 42.719650 -113.833381 40 30735ft 328kts
08-Nov-20 15:02 42.781223 -113.762465 40 30736ft 328kts
08-Nov-20 15:03 42.855022 -113.677215 40 30736ft 329kts
08-Nov-20 15:04 42.929354 -113.591095 41 30738ft 327kts
08-Nov-20 15:05 43.003086 -113.505339 41 30735ft 322kts
08-Nov-20 15:06 43.075362 -113.421039 41 30735ft 317kts
08-Nov-20 15:07 43.146401 -113.337916 41 30745ft 315kts
08-Nov-20 15:08 43.216945 -113.255096 41 30761ft 314kts
08-Nov-20 15:09 43.287403 -113.172130 41 30761ft 314kts
08-Nov-20 15:10 43.357580 -113.089226 41 30761ft 314kts
08-Nov-20 15:11 43.427865 -113.005939 41 30761ft 314kts
08-Nov-20 15:12 43.498450 -112.922017 42 30761ft 316kts
08-Nov-20 15:13 43.568460 -112.838498 41 30760ft 320kts
08-Nov-20 15:14 43.639943 -112.752971 41 30757ft 323kts
08-Nov-20 15:15 43.711122 -112.667533 41 30753ft 324kts
08-Nov-20 15:16 43.781423 -112.582862 41 30754ft 325kts
08-Nov-20 15:17 43.852670 -112.496773 41 30754ft 325kts
08-Nov-20 15:18 43.924630 -112.409527 41 30752ft 325kts
08-Nov-20 15:19 43.994658 -112.324361 42 30746ft 325kts
08-Nov-20 15:20 44.064436 -112.239213 42 30745ft 325kts
08-Nov-20 15:21 44.124073 -112.138657 56 30742ft 323kts
08-Nov-20 15:22 44.177712 -112.030824 56 30742ft 323kts
08-Nov-20 15:23 44.230283 -111.924690 56 30743ft 323kts
08-Nov-20 15:24 44.282241 -111.819423 56 30743ft 323kts
08-Nov-20 15:25 44.334574 -111.712994 56 30742ft 323kts
08-Nov-20 15:26 44.386734 -111.606536 56 30721ft 323kts
08-Nov-20 15:27 44.438968 -111.499533 56 30692ft 324kts
08-Nov-20 15:28 44.490829 -111.392889 56 30679ft 324kts
08-Nov-20 15:29 44.541975 -111.287332 57 30679ft 323kts
08-Nov-20 15:30 44.593103 -111.181435 57 30679ft 323kts
08-Nov-20 15:31 44.644104 -111.075429 57 30679ft 323kts
08-Nov-20 15:32 44.695237 -110.968717 58 30680ft 326kts
08-Nov-20 15:33 44.747075 -110.860144 58 30681ft 330kts
08-Nov-20 15:34 44.798431 -110.752152 58 30682ft 332kts
08-Nov-20 15:35 44.851133 -110.640916 58 30719ft 333kts
08-Nov-20 15:36 44.903260 -110.530491 58 30757ft 332kts
08-Nov-20 15:37 44.956165 -110.417931 58 30431ft 345kts
08-Nov-20 15:38 45.012396 -110.297922 58 28828ft 365kts
08-Nov-20 15:39 45.069627 -110.175176 58 27153ft 361kts
08-Nov-20 15:40 45.125010 -110.055881 58 25557ft 348kts
08-Nov-20 15:41 45.178242 -109.940723 58 23999ft 338kts
08-Nov-20 15:42 45.230880 -109.826431 58 22445ft 336kts
08-Nov-20 15:43 45.282980 -109.712861 57 20890ft 328kts
08-Nov-20 15:44 45.333687 -109.601871 57 19324ft 321kts
08-Nov-20 15:45 45.383305 -109.492850 57 17780ft 319kts
08-Nov-20 15:46 45.432741 -109.383807 56 16236ft 318kts
08-Nov-20 15:47 45.466527 -109.271504 75 15914ft 291kts
08-Nov-20 15:48 45.487880 -109.158811 75 15929ft 285kts
08-Nov-20 15:49 45.509123 -109.046039 75 15956ft 289kts
08-Nov-20 15:50 45.530868 -108.929901 74 15199ft 304kts
08-Nov-20 15:51 45.553429 -108.808708 74 13815ft 304kts
08-Nov-20 15:52 45.575494 -108.689377 73 12444ft 301kts
08-Nov-20 15:53 45.597354 -108.570399 73 11077ft 298kts
08-Nov-20 15:54 45.618338 -108.455512 72 9752ft 265kts
08-Nov-20 15:55 45.644691 -108.358283 47 8313ft 248kts
08-Nov-20 15:56 45.692657 -108.315900 341 7345ft 183kts
08-Nov-20 15:57 45.742484 -108.336088 338 6041ft 179kts
08-Nov-20 15:58 45.764247 -108.381866 292 5514ft 113kts
08-Nov-20 15:59 45.775207 -108.420433 293 5000ft 84kts
08-Nov-20 16:00 45.783585 -108.450350 294 4474ft 77kts
08-Nov-20 16:01 45.792040 -108.480694 291 4077ft 80kts
08-Nov-20 16:02 45.800308 -108.510328 293 3813ft 78kts
08-Nov-20 16:03 45.805032 -108.527281 293 3654ft 22kts
08-Nov-20 16:04 45.804506 -108.529060 203 3654ft 0kts

Navigation Log

Ident Type
Flight plan parsing failed, navigation log unavailable